Time;durP1;ratioP1;P1;durP2;ratioP2;P2;SDS_P1;SDS_P2;PMS_P1;PMS_P2;Temp;Humidity;BMP_temperature;BMP_pressure;BME280_temperature;BME280_humidity;BME280_pressure;Samples;Min_cycle;Max_cycle;Signal;HPM_P1;HPM_P2
2021/10/20 00:02:29;;;;;;;10.30;5.03;;;;;;;14.01;100.00;100970.34;10628464;27;20498;-60
2021/10/20 00:07:32;;;;;;;7.78;5.13;;;;;;;13.87;100.00;100958.13;10628670;27;20397;-60
2021/10/20 00:12:35;;;;;;;11.13;5.32;;;;;;;13.75;100.00;100959.81;10628360;27;20054;-60
2021/10/20 00:17:38;;;;;;;9.55;5.15;;;;;;;13.91;100.00;100946.44;10628405;27;20044;-60
2021/10/20 00:22:41;;;;;;;9.55;5.35;;;;;;;13.83;100.00;100950.53;10627635;27;20062;-59
2021/10/20 00:27:44;;;;;;;5.18;4.68;;;;;;;13.73;100.00;100942.44;10627922;27;20070;-59
2021/10/20 00:32:47;;;;;;;6.03;4.95;;;;;;;13.82;100.00;100940.94;10626570;27;20054;-60
2021/10/20 00:37:49;;;;;;;5.30;4.80;;;;;;;13.85;100.00;100923.19;10627573;27;20051;-60
2021/10/20 00:42:51;;;;;;;5.10;4.60;;;;;;;14.04;100.00;100930.63;10608834;27;20046;-60
2021/10/20 00:47:54;;;;;;;5.57;4.50;;;;;;;13.92;100.00;100924.44;10626948;27;20126;-60
2021/10/20 00:52:58;;;;;;;5.63;4.75;;;;;;;14.08;100.00;100911.03;10626748;27;20074;-60
2021/10/20 00:58:00;;;;;;;5.47;4.82;;;;;;;13.77;100.00;100904.44;10626410;27;20398;-60
2021/10/20 01:03:03;;;;;;;6.85;5.00;;;;;;;14.01;100.00;100875.56;10608067;27;20043;-60
2021/10/20 01:08:05;;;;;;;5.88;3.97;;;;;;;14.20;100.00;100884.78;10625787;27;20051;-61
2021/10/20 01:13:07;;;;;;;7.82;4.43;;;;;;;14.05;100.00;100884.91;10625917;27;20058;-59
2021/10/20 01:18:11;;;;;;;4.82;4.30;;;;;;;14.13;100.00;100877.31;10607501;27;20043;-60
2021/10/20 01:23:14;;;;;;;7.30;4.18;;;;;;;14.09;100.00;100875.03;10625072;27;20438;-60
2021/10/20 01:28:17;;;;;;;6.47;4.63;;;;;;;13.92;100.00;100860.44;10590315;27;20050;-60
2021/10/20 01:33:19;;;;;;;4.38;3.92;;;;;;;14.02;100.00;100848.31;10624935;27;20051;-60
2021/10/20 01:38:21;;;;;;;11.05;4.70;;;;;;;13.96;100.00;100846.09;10625341;27;20059;-59
2021/10/20 01:43:23;;;;;;;6.85;3.60;;;;;;;14.16;100.00;100849.94;10624084;27;20047;-60
2021/10/20 01:48:26;;;;;;;9.55;4.25;;;;;;;14.07;100.00;100850.59;10624698;27;20118;-60
2021/10/20 01:53:29;;;;;;;7.68;3.80;;;;;;;14.02;100.00;100834.28;10624989;27;20043;-60
2021/10/20 01:58:31;;;;;;;9.40;4.22;;;;;;;14.12;100.00;100824.78;10624993;27;20051;-60
2021/10/20 02:03:38;;;;;;;6.55;4.47;;;;;;;14.20;100.00;100817.16;10589721;28;20054;-60
2021/10/20 02:08:41;;;;;;;7.07;4.15;;;;;;;14.21;100.00;100815.41;10624359;28;20143;-59
2021/10/20 02:13:43;;;;;;;7.57;4.22;;;;;;;14.33;100.00;100811.84;10606348;28;20125;-59
2021/10/20 02:18:45;;;;;;;5.28;4.30;;;;;;;14.17;100.00;100806.00;10624004;28;20483;-60
2021/10/20 02:23:48;;;;;;;7.20;3.70;;;;;;;14.30;100.00;100785.75;10623844;28;20509;-60
2021/10/20 02:28:50;;;;;;;4.85;4.03;;;;;;;14.25;100.00;100790.50;10624015;28;20054;-59
2021/10/20 02:33:53;;;;;;;10.93;4.30;;;;;;;13.95;100.00;100781.22;10623903;28;20070;-60
2021/10/20 02:38:55;;;;;;;5.10;3.90;;;;;;;14.26;100.00;100785.13;10623902;28;20058;-59
2021/10/20 02:43:57;;;;;;;10.93;4.75;;;;;;;14.18;100.00;100774.31;10623755;28;20051;-60
2021/10/20 02:49:00;;;;;;;9.13;4.00;;;;;;;14.45;100.00;100767.97;10623541;28;20039;-59
2021/10/20 02:54:02;;;;;;;6.32;4.60;;;;;;;14.25;100.00;100759.72;10625268;27;20406;-59
2021/10/20 02:59:05;;;;;;;5.13;4.20;;;;;;;14.46;100.00;100749.41;10631766;27;20047;-59
2021/10/20 03:04:07;;;;;;;5.13;4.60;;;;;;;14.17;100.00;100748.94;10631524;27;20117;-59
2021/10/20 03:09:10;;;;;;;8.18;4.30;;;;;;;14.28;100.00;100748.16;10630881;27;20043;-60
2021/10/20 03:14:12;;;;;;;7.25;4.43;;;;;;;14.38;100.00;100753.59;10630645;27;20501;-60
2021/10/20 03:19:14;;;;;;;6.60;4.32;;;;;;;14.46;100.00;100740.69;10630395;27;20050;-60
2021/10/20 03:24:17;;;;;;;7.97;4.63;;;;;;;14.17;100.00;100740.19;10630567;27;20043;-60
2021/10/20 03:29:19;;;;;;;8.98;5.88;;;;;;;14.12;100.00;100722.09;10629969;27;20130;-60
2021/10/20 03:34:21;;;;;;;5.65;4.78;;;;;;;14.25;100.00;100722.03;10629997;27;20043;-60
2021/10/20 03:39:24;;;;;;;7.63;4.97;;;;;;;14.23;100.00;100706.34;10629217;27;20051;-60
2021/10/20 03:44:26;;;;;;;11.00;4.30;;;;;;;14.38;100.00;100714.91;10629543;27;20047;-60
2021/10/20 03:49:28;;;;;;;5.47;5.03;;;;;;;14.39;100.00;100708.69;10629405;27;20407;-60
2021/10/20 03:54:30;;;;;;;8.75;5.43;;;;;;;14.25;100.00;100732.56;10629153;27;20043;-60
2021/10/20 03:59:33;;;;;;;5.45;4.95;;;;;;;14.41;100.00;100725.22;10628698;27;20398;-60
2021/10/20 04:04:35;;;;;;;5.82;4.97;;;;;;;14.23;100.00;100713.41;10628640;27;20418;-60
2021/10/20 04:09:37;;;;;;;7.15;5.32;;;;;;;14.31;100.00;100703.16;10628166;27;20039;-60
2021/10/20 04:14:40;;;;;;;7.53;5.85;;;;;;;14.46;100.00;100693.28;10628220;27;20043;-60
2021/10/20 04:19:42;;;;;;;5.32;4.82;;;;;;;14.61;100.00;100676.34;10627788;27;20491;-59
2021/10/20 04:24:44;;;;;;;5.22;4.70;;;;;;;14.50;100.00;100678.91;10628330;27;20043;-60
2021/10/20 04:29:47;;;;;;;7.60;4.93;;;;;;;14.51;100.00;100651.63;10627647;27;20043;-60
2021/10/20 04:34:49;;;;;;;8.73;5.25;;;;;;;14.45;100.00;100654.72;10627567;27;20047;-59
2021/10/20 04:39:53;;;;;;;8.70;5.43;;;;;;;14.46;100.00;100654.59;10627105;27;20070;-60
2021/10/20 04:44:56;;;;;;;8.07;5.93;;;;;;;14.46;100.00;100643.22;10626962;27;20058;-60
2021/10/20 04:50:00;;;;;;;9.00;5.90;;;;;;;14.73;100.00;100660.53;10627405;27;20043;-60
2021/10/20 04:55:04;;;;;;;11.48;7.00;;;;;;;14.46;100.00;100612.44;10626533;27;20479;-60
2021/10/20 05:00:08;;;;;;;9.88;6.13;;;;;;;14.82;100.00;100629.03;10608176;27;20047;-60
2021/10/20 05:05:10;;;;;;;8.48;6.00;;;;;;;14.70;100.00;100621.25;10626612;27;20039;-60
2021/10/20 05:10:12;;;;;;;10.32;6.28;;;;;;;14.42;100.00;100589.91;10626435;27;20043;-60
2021/10/20 05:15:15;;;;;;;9.07;5.97;;;;;;;14.50;100.00;100584.06;10626275;27;20047;-60
2021/10/20 05:20:18;;;;;;;6.82;5.88;;;;;;;14.58;100.00;100581.69;10625161;27;20391;-59
2021/10/20 05:25:21;;;;;;;12.80;7.07;;;;;;;14.33;100.00;100574.84;10625961;27;20394;-60
2021/10/20 05:30:23;;;;;;;10.25;7.57;;;;;;;14.17;100.00;100590.13;10625199;27;20046;-60
2021/10/20 05:35:26;;;;;;;14.43;6.00;;;;;;;14.31;100.00;100582.03;10625742;27;20043;-59
2021/10/20 05:40:28;;;;;;;10.38;7.18;;;;;;;14.15;100.00;100563.06;10624854;27;20051;-61
2021/10/20 05:45:30;;;;;;;8.95;7.30;;;;;;;14.13;100.00;100564.03;10624935;27;20055;-60
2021/10/20 05:50:33;;;;;;;8.38;6.07;;;;;;;14.27;100.00;100567.41;10624739;27;20051;-59
2021/10/20 05:55:37;;;;;;;8.23;6.28;;;;;;;14.42;100.00;100560.94;10624679;27;20043;-60
2021/10/20 06:00:39;;;;;;;6.45;5.85;;;;;;;14.39;100.00;100550.66;10624388;27;20043;-60
2021/10/20 06:05:42;;;;;;;7.50;5.95;;;;;;;14.07;100.00;100534.69;10624574;28;20043;-60
2021/10/20 06:10:44;;;;;;;7.55;6.35;;;;;;;14.20;100.00;100513.53;10624188;28;20058;-60
2021/10/20 06:15:46;;;;;;;7.95;6.15;;;;;;;14.16;100.00;100510.31;10624421;28;20039;-60
2021/10/20 06:20:49;;;;;;;6.63;6.03;;;;;;;14.28;100.00;100495.34;10623446;28;20525;-60
2021/10/20 06:25:51;;;;;;;7.05;6.35;;;;;;;14.25;100.00;100509.56;10624039;28;20051;-60
2021/10/20 06:30:53;;;;;;;9.23;6.53;;;;;;;14.24;100.00;100520.22;10628968;27;20051;-60
2021/10/20 06:35:56;;;;;;;9.45;6.10;;;;;;;14.35;100.00;100514.16;10613872;27;20513;-60
2021/10/20 06:40:58;;;;;;;7.57;6.35;;;;;;;14.39;100.00;100505.03;10631855;27;20059;-60
2021/10/20 06:46:02;;;;;;;6.95;5.47;;;;;;;14.56;100.00;100516.88;10631879;27;20375;-60
2021/10/20 06:51:06;;;;;;;5.97;5.38;;;;;;;14.73;100.00;100519.06;10631694;27;20047;-60
2021/10/20 06:56:08;;;;;;;7.93;6.25;;;;;;;14.75;100.00;100511.88;10631456;27;20498;-60
2021/10/20 07:01:10;;;;;;;8.27;5.95;;;;;;;14.66;100.00;100481.84;10631539;27;20051;-60
2021/10/20 07:06:13;;;;;;;9.20;5.75;;;;;;;14.53;100.00;100496.91;10630933;27;20039;-59
2021/10/20 07:11:15;;;;;;;10.43;6.07;;;;;;;14.86;100.00;100516.28;10630637;27;20482;-60
2021/10/20 07:16:18;;;;;;;7.97;4.82;;;;;;;14.83;100.00;100545.53;10630689;27;20486;-60
2021/10/20 07:21:20;;;;;;;11.48;7.13;;;;;;;14.64;100.00;100525.06;10630211;27;20482;-60
2021/10/20 07:26:22;;;;;;;7.50;6.18;;;;;;;14.82;100.00;100484.06;10630697;27;20050;-59
2021/10/20 07:31:29;;;;;;;8.88;5.57;;;;;;;14.89;100.00;100479.13;10629967;27;20047;-60
2021/10/20 07:36:32;;;;;;;7.75;6.57;;;;;;;15.03;100.00;100452.50;10630333;27;20048;-59
2021/10/20 07:41:34;;;;;;;7.18;5.75;;;;;;;15.06;100.00;100459.31;10628627;27;20043;-60
2021/10/20 07:46:36;;;;;;;8.27;6.75;;;;;;;14.83;100.00;100413.78;10629847;27;20039;-60
2021/10/20 07:51:39;;;;;;;11.65;6.20;;;;;;;14.91;100.00;100421.03;10610820;27;20051;-60
2021/10/20 07:56:43;;;;;;;7.38;6.55;;;;;;;14.61;100.00;100369.88;10629140;27;20050;-60
2021/10/20 08:01:46;;;;;;;12.00;6.45;;;;;;;14.77;100.00;100351.84;10628685;27;20402;-59
2021/10/20 08:06:48;;;;;;;11.98;7.53;;;;;;;14.72;100.00;100332.09;10628685;27;20058;-59
2021/10/20 08:11:51;;;;;;;8.23;7.25;;;;;;;14.81;100.00;100323.44;10628573;27;20055;-59
2021/10/20 08:16:53;;;;;;;10.27;8.15;;;;;;;14.95;100.00;100315.22;10628634;27;20043;-59
2021/10/20 08:21:55;;;;;;;8.00;7.25;;;;;;;14.91;100.00;100305.06;10627973;27;20084;-59
2021/10/20 08:26:58;;;;;;;13.40;7.50;;;;;;;14.85;100.00;100316.97;10627627;27;20053;-59
2021/10/20 08:32:02;;;;;;;8.98;8.07;;;;;;;14.69;100.00;100333.19;10627610;27;20505;-60
2021/10/20 08:37:05;;;;;;;10.40;8.32;;;;;;;14.86;100.00;100332.66;10627617;27;20130;-59
2021/10/20 08:42:07;;;;;;;7.75;6.95;;;;;;;14.94;100.00;100325.91;10627064;27;20046;-59
2021/10/20 08:47:28;;;;;;;12.98;7.28;;;;;;;15.13;100.00;100333.09;10627451;27;20071;-59
2021/10/20 08:52:30;;;;;;;12.68;7.60;;;;;;;15.14;100.00;100327.69;10626492;27;20043;-59
2021/10/20 08:57:32;;;;;;;14.57;7.65;;;;;;;15.16;100.00;100336.34;10626470;27;20482;-59
2021/10/20 09:02:38;;;;;;;9.70;7.55;;;;;;;15.18;100.00;100330.91;10626585;27;20120;-60
2021/10/20 09:07:47;;;;;;;12.93;6.57;;;;;;;15.34;100.00;100338.38;10626833;27;20043;-58
2021/10/20 09:12:50;;;;;;;6.38;5.88;;;;;;;15.39;100.00;100337.00;10625817;27;20413;-61
2021/10/20 09:17:58;;;;;;;9.80;6.93;;;;;;;15.79;100.00;100327.50;10625886;27;20051;-59
2021/10/20 09:23:05;;;;;;;8.05;6.47;;;;;;;15.96;100.00;100305.75;10625489;27;20054;-59
2021/10/20 09:28:13;;;;;;;8.70;6.43;;;;;;;15.91;100.00;100307.13;10607496;27;20040;-59
2021/10/20 09:33:16;;;;;;;8.27;7.10;;;;;;;16.09;100.00;100302.88;10624938;27;20433;-61
2021/10/20 09:38:19;;;;;;;9.98;7.25;;;;;;;16.23;100.00;100304.28;10624864;27;20055;-59
2021/10/20 09:43:28;;;;;;;7.10;5.80;;;;;;;16.27;100.00;100299.53;10624780;27;20398;-60
2021/10/20 09:48:30;;;;;;;7.15;5.88;;;;;;;16.18;100.00;100313.59;10624775;27;20043;-61
2021/10/20 09:53:38;;;;;;;7.35;6.35;;;;;;;16.21;100.00;100308.03;10624492;27;20047;-60
2021/10/20 09:58:45;;;;;;;7.07;6.15;;;;;;;16.28;100.00;100299.41;10624576;27;20536;-61
2021/10/20 10:03:49;;;;;;;10.13;7.15;;;;;;;16.26;100.00;100309.28;10623832;27;20070;-61
2021/10/20 10:08:51;;;;;;;7.57;6.88;;;;;;;16.46;100.00;100291.66;10624589;28;20047;-61
2021/10/20 10:13:55;;;;;;;8.93;7.45;;;;;;;16.60;99.01;100294.84;10624167;28;20400;-61
2021/10/20 10:19:00;;;;;;;7.80;6.88;;;;;;;16.39;100.00;100300.25;10624887;28;20051;-60
2021/10/20 10:24:05;;;;;;;9.45;6.80;;;;;;;16.29;100.00;100324.00;10606097;28;20044;-60
2021/10/20 10:29:13;;;;;;;8.15;7.35;;;;;;;16.26;100.00;100311.09;10606111;28;20051;-60
2021/10/20 10:34:44;;;;;;;9.48;7.30;;;;;;;16.29;100.00;100290.53;10624245;28;20058;-60
2021/10/20 10:39:48;;;;;;;7.40;6.45;;;;;;;16.27;100.00;100297.75;10603926;28;20058;-62
2021/10/20 10:44:53;;;;;;;7.40;5.97;;;;;;;16.33;100.00;100278.69;10605622;28;20043;-60
2021/10/20 10:49:57;;;;;;;7.07;6.25;;;;;;;16.23;100.00;100291.06;10623567;28;20406;-60
2021/10/20 10:55:10;;;;;;;8.65;6.55;;;;;;;16.35;100.00;100274.09;10623735;28;20061;-60
2021/10/20 11:00:18;;;;;;;6.78;6.18;;;;;;;16.31;100.00;100272.72;10623360;28;20051;-60
2021/10/20 11:05:23;;;;;;;6.72;5.38;;;;;;;16.32;100.00;100273.53;10623426;28;20084;-60
2021/10/20 11:10:26;;;;;;;5.82;5.18;;;;;;;16.53;100.00;100249.66;10622787;28;20055;-60
2021/10/20 11:15:30;;;;;;;6.80;6.13;;;;;;;16.69;99.38;100257.00;10625565;27;20513;-60
2021/10/20 11:20:35;;;;;;;8.57;6.43;;;;;;;16.84;97.85;100260.03;10630726;27;20043;-60
2021/10/20 11:25:39;;;;;;;10.38;5.70;;;;;;;17.03;95.43;100256.53;10630664;27;20050;-59
2021/10/20 11:30:42;;;;;;;6.10;5.25;;;;;;;16.73;99.06;100263.69;10630094;27;20113;-62
2021/10/20 11:35:46;;;;;;;6.13;5.47;;;;;;;16.48;99.33;100270.38;10629011;27;20124;-61
2021/10/20 11:40:52;;;;;;;6.50;5.85;;;;;;;16.46;99.65;100261.75;10628883;27;20097;-60
2021/10/20 11:45:55;;;;;;;7.15;5.82;;;;;;;16.45;100.00;100268.00;10629534;27;20039;-60
2021/10/20 11:50:58;;;;;;;6.63;5.28;;;;;;;16.67;100.00;100258.94;10629161;27;20114;-62
2021/10/20 11:56:02;;;;;;;6.35;5.30;;;;;;;16.55;100.00;100249.50;10629089;27;20047;-60
2021/10/20 12:01:07;;;;;;;9.80;5.65;;;;;;;16.73;99.61;100250.47;10628529;27;20402;-60
2021/10/20 12:06:16;;;;;;;6.20;5.72;;;;;;;16.59;100.00;100233.22;10629292;27;20047;-60
2021/10/20 12:11:19;;;;;;;6.53;5.93;;;;;;;16.46;100.00;100224.78;10628272;27;20048;-60
2021/10/20 12:16:22;;;;;;;5.32;4.80;;;;;;;16.56;100.00;100230.88;10610639;27;20050;-60
2021/10/20 12:21:28;;;;;;;7.20;5.32;;;;;;;16.50;100.00;100226.97;10610101;27;20043;-60
2021/10/20 12:26:32;;;;;;;5.97;5.18;;;;;;;16.58;100.00;100214.88;10627268;27;20402;-60
2021/10/20 12:31:36;;;;;;;9.20;5.32;;;;;;;16.64;99.98;100214.28;10627490;27;20061;-62
2021/10/20 12:36:39;;;;;;;10.90;5.72;;;;;;;16.70;100.00;100197.88;10627368;27;20408;-59
2021/10/20 12:41:43;;;;;;;11.52;5.07;;;;;;;16.57;100.00;100178.84;10627175;27;20486;-60
2021/10/20 12:46:50;;;;;;;6.30;5.30;;;;;;;16.75;99.97;100179.78;10627713;27;20069;-59
2021/10/20 12:51:56;;;;;;;8.07;6.00;;;;;;;16.62;100.00;100169.50;10609248;27;20051;-60
2021/10/20 12:57:15;;;;;;;6.03;5.43;;;;;;;16.58;99.47;100178.72;10626489;27;20406;-60
2021/10/20 13:02:21;;;;;;;6.18;5.57;;;;;;;16.81;99.03;100176.56;10625518;27;20035;-60
2021/10/20 13:07:24;;;;;;;7.93;6.30;;;;;;;16.68;100.00;100161.03;10625573;27;20054;-60
2021/10/20 13:12:26;;;;;;;5.82;5.38;;;;;;;16.84;99.60;100160.44;10625965;27;20047;-60
2021/10/20 13:17:30;;;;;;;6.25;5.68;;;;;;;16.85;100.00;100156.81;10626016;27;20062;-60
2021/10/20 13:22:32;;;;;;;5.88;5.38;;;;;;;16.69;100.00;100140.69;10625459;27;20047;-61
2021/10/20 13:27:35;;;;;;;6.53;5.32;;;;;;;16.81;100.00;100130.78;10625760;27;20057;-61
2021/10/20 13:32:37;;;;;;;9.68;5.60;;;;;;;16.68;100.00;100131.13;10625236;27;20055;-60
2021/10/20 13:37:40;;;;;;;7.63;5.68;;;;;;;16.72;100.00;100124.56;10624154;27;20528;-60
2021/10/20 13:42:42;;;;;;;8.88;5.57;;;;;;;16.63;100.00;100106.94;10624846;27;20039;-62
2021/10/20 13:47:44;;;;;;;6.20;4.80;;;;;;;16.73;100.00;100110.38;10624819;27;20406;-60
2021/10/20 13:52:48;;;;;;;7.88;5.65;;;;;;;16.73;100.00;100105.09;10624842;27;20051;-61
2021/10/20 13:57:50;;;;;;;6.60;5.82;;;;;;;16.75;100.00;100107.59;10624699;27;20047;-61
2021/10/20 14:02:53;;;;;;;9.70;6.60;;;;;;;16.58;100.00;100102.06;10624079;27;20400;-59
2021/10/20 14:07:56;;;;;;;8.40;6.00;;;;;;;16.55;100.00;100089.16;10624461;28;20047;-59
2021/10/20 14:12:58;;;;;;;7.57;5.45;;;;;;;16.41;100.00;100093.09;10624184;28;20402;-60
2021/10/20 14:18:00;;;;;;;6.82;5.50;;;;;;;16.58;100.00;100088.03;10624178;28;20475;-60
2021/10/20 14:23:03;;;;;;;8.43;6.32;;;;;;;16.39;100.00;100065.97;10623915;28;20043;-60
2021/10/20 14:28:06;;;;;;;6.90;6.20;;;;;;;16.37;100.00;100057.34;10623939;28;20509;-61
2021/10/20 14:33:09;;;;;;;8.30;6.70;;;;;;;16.42;100.00;100041.91;10624194;28;20050;-61
2021/10/20 14:38:11;;;;;;;7.40;5.80;;;;;;;16.58;100.00;100043.94;10623423;28;20062;-61
2021/10/20 14:43:22;;;;;;;9.40;7.90;;;;;;;16.37;100.00;100049.41;10624240;28;20047;-60
2021/10/20 14:48:24;;;;;;;8.32;7.50;;;;;;;16.34;100.00;100052.38;10623706;28;20078;-60
2021/10/20 14:53:27;;;;;;;7.38;6.45;;;;;;;16.45;100.00;100046.06;10631112;27;20508;-60
2021/10/20 14:58:32;;;;;;;11.48;7.60;;;;;;;16.29;100.00;100042.22;10631594;27;20044;-60
2021/10/20 15:03:34;;;;;;;7.90;7.10;;;;;;;16.28;100.00;100030.00;10631409;27;20047;-60
2021/10/20 15:08:44;;;;;;;8.15;6.50;;;;;;;16.15;100.00;100029.47;10630975;27;20483;-59
2021/10/20 15:13:47;;;;;;;9.18;6.85;;;;;;;16.33;100.00;100013.72;10630795;27;20058;-60
2021/10/20 15:18:58;;;;;;;10.38;6.88;;;;;;;16.12;100.00;100020.03;10630795;27;20058;-61
2021/10/20 15:24:00;;;;;;;9.07;6.93;;;;;;;16.12;100.00;99998.06;10630839;27;20051;-60
2021/10/20 15:29:03;;;;;;;10.32;7.32;;;;;;;16.10;100.00;99995.56;10630058;27;20054;-60
2021/10/20 15:34:05;;;;;;;10.20;6.57;;;;;;;16.23;100.00;99968.03;10629850;27;20501;-60
2021/10/20 15:39:08;;;;;;;10.45;7.53;;;;;;;16.20;100.00;99971.78;10629600;27;20513;-61
2021/10/20 15:44:10;;;;;;;6.63;6.03;;;;;;;16.11;100.00;99959.44;10630123;27;20058;-62
2021/10/20 15:49:15;;;;;;;9.95;6.88;;;;;;;15.82;100.00;99936.63;10629542;27;20040;-62
2021/10/20 15:54:18;;;;;;;7.68;6.80;;;;;;;15.78;100.00;99944.00;10629232;27;20063;-60
2021/10/20 15:59:20;;;;;;;13.27;7.63;;;;;;;15.77;100.00;99947.59;10629491;27;20051;-61
2021/10/20 16:04:22;;;;;;;14.63;9.15;;;;;;;15.82;100.00;99917.28;10628362;27;20124;-61
2021/10/20 16:09:25;;;;;;;37.90;17.05;;;;;;;15.20;100.00;99897.38;10628893;27;20049;-61
2021/10/20 16:14:30;;;;;;;9.48;6.97;;;;;;;15.44;100.00;99916.38;10628524;27;20059;-61
2021/10/20 16:19:33;;;;;;;11.57;7.82;;;;;;;15.09;100.00;99915.97;10628171;27;20055;-60
2021/10/20 16:24:35;;;;;;;15.57;8.85;;;;;;;15.13;100.00;99903.34;10627943;27;20055;-61
2021/10/20 16:29:38;;;;;;;21.27;12.68;;;;;;;15.06;100.00;99889.88;10627962;27;20047;-61
2021/10/20 16:34:40;;;;;;;20.20;11.82;;;;;;;14.89;100.00;99887.94;10627753;27;20444;-61
2021/10/20 16:39:44;;;;;;;19.13;13.25;;;;;;;15.04;100.00;99871.56;10627392;27;20061;-61
2021/10/20 16:44:46;;;;;;;20.02;13.80;;;;;;;15.02;100.00;99905.16;10627513;27;20047;-62
2021/10/20 16:49:49;;;;;;;15.55;11.65;;;;;;;15.02;100.00;99891.16;10626994;27;20043;-62
2021/10/20 16:54:51;;;;;;;18.13;12.68;;;;;;;15.18;100.00;99880.88;10626945;27;20077;-62
2021/10/20 16:59:54;;;;;;;21.02;14.65;;;;;;;15.05;100.00;99878.50;10626197;27;20054;-61
2021/10/20 17:04:56;;;;;;;25.38;14.45;;;;;;;14.95;100.00;99882.13;10626766;27;20044;-62
2021/10/20 17:09:58;;;;;;;13.23;10.15;;;;;;;14.98;100.00;99872.16;10626185;27;20055;-61
2021/10/20 17:15:02;;;;;;;14.35;11.13;;;;;;;14.96;100.00;99884.63;10625960;27;20051;-62
2021/10/20 17:20:06;;;;;;;16.17;11.68;;;;;;;14.99;100.00;99900.16;10626441;27;20039;-62
2021/10/20 17:25:09;;;;;;;14.77;9.18;;;;;;;14.93;100.00;99913.03;10625594;27;20050;-61
2021/10/20 17:30:13;;;;;;;14.55;9.27;;;;;;;14.81;100.00;99922.88;10625865;27;20054;-61
2021/10/20 17:35:17;;;;;;;8.00;4.57;;;;;;;14.56;100.00;99896.06;10625249;27;20502;-61
2021/10/20 17:40:21;;;;;;;5.38;2.88;;;;;;;14.22;100.00;99896.41;10625184;27;20047;-61
2021/10/20 17:45:25;;;;;;;3.13;2.60;;;;;;;14.07;100.00;99881.91;10625304;27;20043;-60
2021/10/20 17:50:27;;;;;;;5.70;4.15;;;;;;;14.08;100.00;99883.59;10625203;27;20043;-60
2021/10/20 17:55:30;;;;;;;4.47;3.30;;;;;;;14.18;100.00;99866.03;10624720;27;20054;-61
2021/10/20 18:00:32;;;;;;;8.68;4.32;;;;;;;14.06;100.00;99886.34;10624417;27;20050;-61
2021/10/20 18:05:35;;;;;;;6.47;4.30;;;;;;;14.23;100.00;99865.63;10624913;28;20100;-62
2021/10/20 18:10:37;;;;;;;8.60;5.15;;;;;;;14.30;100.00;99872.84;10624406;28;20045;-61
2021/10/20 18:15:40;;;;;;;13.60;4.88;;;;;;;14.34;100.00;99862.91;10624617;28;20047;-61
2021/10/20 18:20:42;;;;;;;9.70;6.20;;;;;;;14.21;100.00;99876.28;10624221;28;20039;-62
2021/10/20 18:25:44;;;;;;;7.65;5.28;;;;;;;14.57;100.00;99854.75;10627445;27;20043;-61
2021/10/20 18:30:47;;;;;;;13.85;6.68;;;;;;;14.30;100.00;99843.06;10633336;27;20049;-61
2021/10/20 18:35:49;;;;;;;18.77;10.05;;;;;;;14.23;100.00;99844.56;10614296;27;20410;-61
2021/10/20 18:40:52;;;;;;;17.10;9.70;;;;;;;14.12;100.00;99838.44;10632670;27;20054;-62
2021/10/20 18:45:54;;;;;;;13.90;7.35;;;;;;;14.14;100.00;99827.78;10632055;27;20478;-62
2021/10/20 18:50:56;;;;;;;17.77;8.35;;;;;;;13.99;100.00;99815.97;10631935;27;20051;-61
2021/10/20 18:55:59;;;;;;;21.02;10.30;;;;;;;14.02;100.00;99805.16;10631448;27;20134;-61
2021/10/20 19:01:02;;;;;;;10.88;8.00;;;;;;;13.94;100.00;99792.69;10631511;27;20039;-61
2021/10/20 19:06:05;;;;;;;20.38;8.55;;;;;;;13.90;100.00;99784.25;10631768;27;20053;-61
2021/10/20 19:11:07;;;;;;;12.23;7.82;;;;;;;13.81;100.00;99774.50;10630874;27;20051;-61
2021/10/20 19:16:10;;;;;;;16.20;8.55;;;;;;;13.75;100.00;99772.41;10631485;27;20054;-62
2021/10/20 19:21:12;;;;;;;16.33;9.32;;;;;;;13.81;100.00;99774.50;10630430;27;20047;-61
2021/10/20 19:26:15;;;;;;;19.40;10.88;;;;;;;13.52;100.00;99751.56;10630336;27;20047;-61
2021/10/20 19:31:18;;;;;;;15.63;9.88;;;;;;;13.60;100.00;99743.03;10630012;27;20399;-61
2021/10/20 19:36:20;;;;;;;21.33;9.50;;;;;;;13.47;100.00;99730.09;10612132;27;20095;-62
2021/10/20 19:41:23;;;;;;;15.18;8.77;;;;;;;13.47;100.00;99708.25;10630451;27;20048;-61
2021/10/20 19:46:25;;;;;;;22.98;12.13;;;;;;;13.55;100.00;99708.41;10630151;27;20054;-61
2021/10/20 19:51:28;;;;;;;31.70;14.73;;;;;;;13.49;100.00;99711.56;10630133;27;20051;-61
2021/10/20 19:56:32;;;;;;;15.73;8.68;;;;;;;13.63;100.00;99690.13;10629575;27;20050;-62
2021/10/20 20:01:41;;;;;;;23.73;11.97;;;;;;;13.49;100.00;99683.47;10629156;27;20047;-62
2021/10/20 20:06:45;;;;;;;19.55;9.25;;;;;;;13.89;100.00;99679.13;10629310;27;20047;-61
2021/10/20 20:11:48;;;;;;;16.33;7.55;;;;;;;13.75;100.00;99680.31;10610393;27;20046;-61
2021/10/20 20:16:51;;;;;;;14.38;8.10;;;;;;;13.70;100.00;99667.59;10629287;27;20139;-61
2021/10/20 20:21:55;;;;;;;22.40;9.05;;;;;;;13.94;100.00;99647.97;10628087;27;20062;-62
2021/10/20 20:26:57;;;;;;;11.35;5.78;;;;;;;13.89;100.00;99651.00;10609887;27;20402;-61
2021/10/20 20:31:59;;;;;;;18.65;7.72;;;;;;;13.73;100.00;99638.41;10628269;27;20066;-63
2021/10/20 20:37:02;;;;;;;10.27;5.70;;;;;;;13.73;100.00;99641.03;10609530;27;20055;-62
2021/10/20 20:42:05;;;;;;;13.82;6.18;;;;;;;13.73;100.00;99630.50;10627466;27;20039;-61
2021/10/20 20:47:08;;;;;;;7.45;4.88;;;;;;;13.69;100.00;99617.75;10626934;27;20043;-61
2021/10/20 20:52:11;;;;;;;15.98;7.80;;;;;;;13.72;100.00;99623.56;10626867;27;20376;-61
2021/10/20 20:57:14;;;;;;;13.55;4.65;;;;;;;13.72;100.00;99607.78;10608833;27;20043;-61
2021/10/20 21:02:16;;;;;;;16.00;7.65;;;;;;;13.56;100.00;99586.44;10608347;27;20418;-61
2021/10/20 21:07:19;;;;;;;10.85;5.63;;;;;;;13.75;100.00;99565.44;10608297;27;20047;-61
2021/10/20 21:12:22;;;;;;;16.98;5.18;;;;;;;13.50;100.00;99527.38;10626002;27;20123;-62
2021/10/20 21:17:24;;;;;;;15.77;5.97;;;;;;;13.40;100.00;99508.13;10626371;27;20047;-61
2021/10/20 21:22:26;;;;;;;12.30;4.63;;;;;;;13.53;100.00;99497.31;10626020;27;20045;-61
2021/10/20 21:27:29;;;;;;;9.57;4.35;;;;;;;13.39;100.00;99480.16;10625791;27;20049;-62
2021/10/20 21:32:32;;;;;;;15.70;4.97;;;;;;;13.33;100.00;99481.56;10625389;27;20394;-61
2021/10/20 21:37:55;;;;;;;16.48;6.53;;;;;;;13.52;100.00;99477.28;10610101;27;20047;-61
2021/10/20 21:42:57;;;;;;;12.98;5.63;;;;;;;13.42;100.00;99450.16;10625054;27;20474;-62
2021/10/20 21:48:00;;;;;;;19.88;7.15;;;;;;;13.49;100.00;99436.28;10625021;27;20409;-61
2021/10/20 21:53:02;;;;;;;10.52;4.57;;;;;;;13.45;100.00;99407.78;10624963;27;20048;-61
2021/10/20 21:58:05;;;;;;;12.27;4.78;;;;;;;13.50;100.00;99382.75;10624634;27;20043;-61
2021/10/20 22:03:07;;;;;;;10.05;4.57;;;;;;;13.62;100.00;99367.63;10623725;27;20537;-61
2021/10/20 22:08:10;;;;;;;7.53;4.18;;;;;;;13.26;100.00;99343.72;10606129;28;20051;-62
2021/10/20 22:13:12;;;;;;;9.48;4.90;;;;;;;13.31;100.00;99314.41;10624791;28;20047;-61
2021/10/20 22:18:15;;;;;;;15.25;5.50;;;;;;;13.53;100.00;99300.13;10606846;28;20050;-61
2021/10/20 22:23:17;;;;;;;20.20;5.93;;;;;;;13.35;100.00;99286.91;10624113;28;20440;-61
2021/10/20 22:28:19;;;;;;;19.95;6.55;;;;;;;13.69;100.00;99279.31;10623811;28;20510;-61
2021/10/20 22:33:22;;;;;;;10.90;4.22;;;;;;;13.39;100.00;99251.47;10623987;28;20050;-60
2021/10/20 22:38:24;;;;;;;18.33;4.85;;;;;;;13.25;100.00;99217.75;10605719;28;20051;-61
2021/10/20 22:43:27;;;;;;;10.70;3.83;;;;;;;13.13;100.00;99207.41;10623832;28;20047;-61
2021/10/20 22:48:31;;;;;;;9.02;4.30;;;;;;;13.43;100.00;99196.78;10623737;28;20469;-61
2021/10/20 22:53:33;;;;;;;14.40;5.57;;;;;;;13.31;100.00;99178.53;10623536;28;20371;-61
2021/10/20 22:58:37;;;;;;;24.83;6.30;;;;;;;13.22;100.00;99163.66;10623666;28;20052;-61